createdAt,value
2022-10-03T00:01:17.833Z,10.80
2022-10-03T00:03:51.128Z,10.80
2022-10-03T00:06:26.015Z,10.70
2022-10-03T00:09:08.879Z,10.70
2022-10-03T00:11:42.524Z,10.70
2022-10-03T00:14:13.704Z,10.60
2022-10-03T00:16:44.638Z,10.60
2022-10-03T00:19:17.741Z,10.60
2022-10-03T00:21:51.738Z,10.50
2022-10-03T00:24:24.193Z,10.50
2022-10-03T00:26:54.764Z,10.50
2022-10-03T00:29:28.017Z,10.50
2022-10-03T00:31:59.760Z,10.40
2022-10-03T00:34:33.425Z,10.40
2022-10-03T00:37:13.852Z,10.30
2022-10-03T00:39:46.846Z,10.20
2022-10-03T00:42:26.343Z,10.20
2022-10-03T00:45:12.623Z,10.10
2022-10-03T00:48:01.387Z,10.10
2022-10-03T00:50:46.857Z,10.10
2022-10-03T00:53:21.512Z,10.00
2022-10-03T00:55:58.531Z,10.00
2022-10-03T00:58:33.468Z,10.00
2022-10-03T01:01:21.121Z,10.00
2022-10-03T01:03:55.049Z,9.90
2022-10-03T01:06:31.246Z,9.80
2022-10-03T01:09:13.451Z,9.80
2022-10-03T01:11:54.057Z,9.70
2022-10-03T01:14:27.914Z,9.80
2022-10-03T01:17:00.721Z,9.80
2022-10-03T01:19:33.039Z,9.70
2022-10-03T01:22:14.444Z,9.60
2022-10-03T01:24:53.730Z,9.40
2022-10-03T01:27:26.399Z,9.40
2022-10-03T01:30:15.251Z,9.30
2022-10-03T01:32:48.716Z,9.20
2022-10-03T01:35:22.455Z,9.20
2022-10-03T01:37:55.321Z,9.20
2022-10-03T01:40:27.170Z,9.30
2022-10-03T01:43:02.198Z,9.30
2022-10-03T01:45:37.409Z,9.30
2022-10-03T01:48:07.773Z,9.20
2022-10-03T01:50:38.464Z,9.20
2022-10-03T01:53:09.913Z,9.20
2022-10-03T01:55:55.388Z,9.20
2022-10-03T01:58:27.247Z,9.20
2022-10-03T02:01:00.475Z,9.20
2022-10-03T02:03:30.876Z,9.20
2022-10-03T02:06:02.014Z,9.20
2022-10-03T02:08:36.536Z,9.20
2022-10-03T02:11:08.105Z,9.20
2022-10-03T02:13:42.273Z,9.20
2022-10-03T02:16:15.429Z,9.20
2022-10-03T02:18:46.143Z,9.20
2022-10-03T02:21:16.724Z,9.30
2022-10-03T02:23:46.133Z,9.30
2022-10-03T02:26:34.974Z,9.40
2022-10-03T02:29:24.191Z,9.40
2022-10-03T02:32:10.802Z,9.40
2022-10-03T02:35:00.014Z,9.40
2022-10-03T02:37:46.532Z,9.40
2022-10-03T02:40:42.154Z,9.40
2022-10-03T02:43:26.423Z,9.40
2022-10-03T02:46:11.882Z,9.40
2022-10-03T02:48:48.297Z,9.40
2022-10-03T02:51:26.742Z,9.30
2022-10-03T02:54:23.091Z,9.30
2022-10-03T02:57:12.507Z,9.30
2022-10-03T02:59:58.007Z,9.40
2022-10-03T03:02:35.437Z,9.30
2022-10-03T03:05:20.976Z,9.10
2022-10-03T03:07:59.262Z,9.10
2022-10-03T03:10:44.049Z,9.00
2022-10-03T03:13:32.987Z,8.90
2022-10-03T03:16:33.122Z,8.90
2022-10-03T03:19:13.498Z,8.80
2022-10-03T03:21:43.374Z,8.70
2022-10-03T03:24:18.021Z,8.60
2022-10-03T03:26:56.988Z,8.70
2022-10-03T03:29:32.192Z,8.80
2022-10-03T03:32:03.773Z,8.80
2022-10-03T03:34:35.000Z,8.80
2022-10-03T03:37:05.397Z,8.80
2022-10-03T03:39:43.721Z,8.80
2022-10-03T03:42:24.097Z,8.70
2022-10-03T03:44:58.377Z,8.80
2022-10-03T03:47:31.501Z,8.70
2022-10-03T03:50:12.652Z,8.60
2022-10-03T03:52:47.180Z,8.60
2022-10-03T03:55:24.273Z,8.60
2022-10-03T03:57:59.962Z,8.60
2022-10-03T04:00:32.971Z,8.50
2022-10-03T04:03:07.544Z,8.50
2022-10-03T04:05:43.158Z,8.40
2022-10-03T04:08:27.148Z,8.40
2022-10-03T04:11:00.987Z,8.40
2022-10-03T04:13:36.781Z,8.30
2022-10-03T04:16:17.376Z,8.20
2022-10-03T04:18:57.952Z,8.10
2022-10-03T04:21:42.465Z,8.00
2022-10-03T04:24:25.333Z,7.90
2022-10-03T04:27:04.410Z,8.00
2022-10-03T04:29:47.177Z,8.00
2022-10-03T04:32:24.740Z,8.10
2022-10-03T04:35:00.906Z,8.20
2022-10-03T04:37:33.715Z,8.30
2022-10-03T04:40:09.485Z,8.20
2022-10-03T04:42:43.487Z,8.20
2022-10-03T04:45:28.739Z,8.30
2022-10-03T04:48:00.286Z,8.40
2022-10-03T04:50:32.688Z,8.40
2022-10-03T04:53:11.783Z,8.50
2022-10-03T04:55:42.012Z,8.40
2022-10-03T04:58:16.734Z,8.50
2022-10-03T05:00:52.855Z,8.50
2022-10-03T05:03:24.912Z,8.50
2022-10-03T05:05:56.080Z,8.60
2022-10-03T05:08:28.836Z,8.70
2022-10-03T05:11:12.298Z,8.80
2022-10-03T05:13:47.222Z,8.90
2022-10-03T05:16:23.225Z,8.90
2022-10-03T05:18:54.107Z,9.00
2022-10-03T05:21:30.058Z,9.10
2022-10-03T05:24:03.702Z,9.20
2022-10-03T05:26:44.914Z,9.20
2022-10-03T05:29:17.017Z,9.30
2022-10-03T05:31:50.096Z,9.30
2022-10-03T05:34:24.828Z,9.40
2022-10-03T05:37:08.512Z,9.40
2022-10-03T05:39:41.542Z,9.50
2022-10-03T05:42:22.996Z,9.50
2022-10-03T05:44:58.665Z,9.40
2022-10-03T05:47:49.197Z,9.40
2022-10-03T05:50:41.508Z,9.40
2022-10-03T05:53:18.491Z,9.50
2022-10-03T05:55:55.205Z,9.40
2022-10-03T05:58:37.895Z,9.40
2022-10-03T06:01:19.181Z,9.40
2022-10-03T06:04:05.935Z,9.40
2022-10-03T06:06:35.913Z,9.40
2022-10-03T06:09:30.600Z,9.60
2022-10-03T06:12:10.171Z,9.60
2022-10-03T06:14:52.977Z,9.70
2022-10-03T06:17:42.341Z,9.80
2022-10-03T06:20:29.746Z,9.90
2022-10-03T06:23:23.003Z,10.10
2022-10-03T06:26:06.997Z,10.20
2022-10-03T06:29:03.339Z,10.20
2022-10-03T06:31:49.817Z,10.30
2022-10-03T06:34:32.635Z,10.50
2022-10-03T06:37:09.232Z,10.60
2022-10-03T06:40:07.467Z,10.70
2022-10-03T06:42:44.928Z,10.80
2022-10-03T06:45:30.978Z,10.90
2022-10-03T06:48:05.835Z,10.90
2022-10-03T06:50:42.052Z,11.00
2022-10-03T06:53:15.960Z,11.10
2022-10-03T06:55:58.214Z,11.10
2022-10-03T06:58:42.073Z,11.10
2022-10-03T07:01:27.295Z,11.10
2022-10-03T07:04:04.892Z,11.20
2022-10-03T07:06:54.737Z,11.30
2022-10-03T07:09:37.532Z,11.60
2022-10-03T07:12:24.131Z,11.80
2022-10-03T07:15:00.766Z,11.90
2022-10-03T07:17:41.753Z,11.90
2022-10-03T07:20:33.711Z,12.20
2022-10-03T07:23:19.598Z,12.30
2022-10-03T07:26:06.760Z,12.70
2022-10-03T07:28:48.699Z,13.20
2022-10-03T07:31:22.514Z,13.60
2022-10-03T07:34:14.621Z,13.90
2022-10-03T07:37:27.114Z,14.10
2022-10-03T07:40:08.527Z,13.90
2022-10-03T07:42:47.873Z,13.80
2022-10-03T07:45:34.485Z,14.10
2022-10-03T07:48:26.871Z,14.60
2022-10-03T07:51:01.330Z,15.10
2022-10-03T07:53:42.125Z,15.30
2022-10-03T07:56:17.650Z,15.50
2022-10-03T07:58:53.062Z,16.10
2022-10-03T08:01:39.857Z,16.40
2022-10-03T08:04:26.070Z,17.00
2022-10-03T08:07:02.349Z,17.50
2022-10-03T08:09:42.704Z,18.20
2022-10-03T08:12:34.665Z,18.70
2022-10-03T08:15:07.068Z,19.30
2022-10-03T08:17:52.789Z,20.40
2022-10-03T08:20:35.356Z,20.60
2022-10-03T08:23:15.625Z,21.40
2022-10-03T08:25:55.328Z,22.10
2022-10-03T08:28:35.354Z,22.80
2022-10-03T08:31:16.647Z,23.40
2022-10-03T08:33:55.454Z,22.90
2022-10-03T08:36:42.584Z,22.70
2022-10-03T08:39:23.954Z,23.60
2022-10-03T08:42:15.878Z,24.00
2022-10-03T08:44:54.563Z,24.70
2022-10-03T08:47:43.624Z,25.60
2022-10-03T08:50:29.445Z,26.00
2022-10-03T08:53:13.063Z,26.70
2022-10-03T08:55:52.885Z,27.50
2022-10-03T08:58:32.491Z,26.90
2022-10-03T09:01:11.664Z,27.30
2022-10-03T09:03:54.461Z,27.40
2022-10-03T09:06:58.729Z,26.90
2022-10-03T09:09:39.356Z,27.20
2022-10-03T09:12:19.115Z,28.80
2022-10-03T09:15:02.957Z,29.50
2022-10-03T09:17:49.379Z,30.90
2022-10-03T09:20:27.941Z,32.00
2022-10-03T09:23:03.125Z,32.00
2022-10-03T09:25:40.675Z,30.90
2022-10-03T09:28:29.371Z,31.20
2022-10-03T09:31:07.012Z,30.60
2022-10-03T09:33:55.218Z,31.10
2022-10-03T09:36:53.566Z,31.60
2022-10-03T09:39:39.504Z,32.00
2022-10-03T09:42:25.971Z,32.70
2022-10-03T09:45:14.144Z,31.60
2022-10-03T09:47:59.841Z,31.90
2022-10-03T09:50:51.985Z,32.70
2022-10-03T09:53:32.258Z,33.10
2022-10-03T09:56:14.086Z,33.20
2022-10-03T09:58:53.227Z,33.00
2022-10-03T10:01:27.229Z,33.00
2022-10-03T10:04:10.366Z,33.50
2022-10-03T10:06:47.191Z,33.50
2022-10-03T10:09:23.851Z,33.30
2022-10-03T10:12:02.980Z,32.30
2022-10-03T10:14:52.731Z,33.10
2022-10-03T10:17:45.026Z,33.60
2022-10-03T10:20:34.255Z,31.30
2022-10-03T10:23:21.766Z,29.60
2022-10-03T10:26:16.689Z,27.90
2022-10-03T10:29:02.172Z,26.90
2022-10-03T10:31:52.421Z,25.90
2022-10-03T10:34:38.959Z,25.00
2022-10-03T10:37:19.184Z,24.20
2022-10-03T10:40:02.166Z,23.50
2022-10-03T10:42:49.589Z,23.30
2022-10-03T10:45:48.402Z,23.20
2022-10-03T10:48:31.184Z,23.10
2022-10-03T10:51:11.971Z,22.90
2022-10-03T10:54:12.322Z,22.50
2022-10-03T10:57:10.607Z,22.30
2022-10-03T11:00:05.215Z,22.20
2022-10-03T11:02:48.916Z,22.00
2022-10-03T11:05:34.336Z,22.10
2022-10-03T11:08:20.645Z,22.40
2022-10-03T11:10:59.525Z,23.00
2022-10-03T11:13:46.349Z,24.70
2022-10-03T11:16:49.126Z,26.70
2022-10-03T11:19:47.971Z,29.30
2022-10-03T11:22:43.508Z,30.80
2022-10-03T11:25:32.329Z,31.80
2022-10-03T11:28:20.059Z,32.00
2022-10-03T11:31:10.481Z,32.60
2022-10-03T11:33:53.960Z,32.60
2022-10-03T11:36:45.763Z,32.40
2022-10-03T11:39:17.088Z,32.70
2022-10-03T11:41:48.398Z,32.70
2022-10-03T11:44:22.096Z,32.40
2022-10-03T11:47:14.010Z,32.10
2022-10-03T11:49:51.739Z,31.60
2022-10-03T11:52:27.823Z,30.70
2022-10-03T11:55:03.845Z,29.60
2022-10-03T11:57:33.471Z,29.20
2022-10-03T12:00:05.090Z,28.60
2022-10-03T12:02:54.271Z,27.90
2022-10-03T12:05:29.001Z,27.10
2022-10-03T12:08:21.437Z,26.20
2022-10-03T12:10:53.683Z,25.30
2022-10-03T12:13:24.213Z,24.50
2022-10-03T12:15:54.279Z,23.90
2022-10-03T12:18:32.019Z,23.40
2022-10-03T12:21:12.360Z,22.80
2022-10-03T12:24:00.941Z,22.20
2022-10-03T12:26:34.662Z,22.00
2022-10-03T12:29:03.838Z,22.00
2022-10-03T12:31:36.062Z,21.80
2022-10-03T12:34:13.568Z,21.70
2022-10-03T12:36:49.265Z,21.50
2022-10-03T12:39:25.339Z,21.70
2022-10-03T12:41:58.698Z,21.80
2022-10-03T12:44:34.916Z,21.90
2022-10-03T12:47:09.172Z,21.90
2022-10-03T12:49:44.288Z,21.90
2022-10-03T12:52:21.748Z,21.80
2022-10-03T12:54:52.803Z,21.70
2022-10-03T12:57:39.457Z,21.60
2022-10-03T13:00:11.089Z,21.60
2022-10-03T13:02:41.930Z,21.80
2022-10-03T13:05:30.702Z,22.00
2022-10-03T13:08:03.378Z,22.00
2022-10-03T13:10:37.024Z,21.90
2022-10-03T13:13:13.229Z,21.60
2022-10-03T13:15:45.357Z,21.20
2022-10-03T13:18:20.599Z,21.40
2022-10-03T13:20:52.172Z,21.60
2022-10-03T13:23:24.562Z,21.70
2022-10-03T13:25:59.376Z,21.90
2022-10-03T13:28:31.383Z,22.10
2022-10-03T13:31:03.729Z,22.40
2022-10-03T13:33:34.135Z,22.90
2022-10-03T13:36:10.667Z,23.00
2022-10-03T13:39:00.001Z,23.10
2022-10-03T13:41:30.695Z,22.70
2022-10-03T13:44:01.455Z,22.70
2022-10-03T13:46:33.082Z,22.50
2022-10-03T13:49:02.729Z,22.40
2022-10-03T13:51:39.598Z,22.30
2022-10-03T13:54:11.111Z,22.10
2022-10-03T13:56:42.016Z,21.80
2022-10-03T13:59:17.114Z,21.60
2022-10-03T14:01:50.217Z,21.60
2022-10-03T14:04:36.700Z,21.20
2022-10-03T14:07:08.844Z,21.00
2022-10-03T14:09:44.435Z,20.90
2022-10-03T14:12:28.190Z,20.90
2022-10-03T14:15:18.105Z,20.70
2022-10-03T14:17:50.940Z,20.60
2022-10-03T14:20:23.603Z,20.40
2022-10-03T14:22:58.068Z,20.10
2022-10-03T14:25:30.402Z,19.90
2022-10-03T14:28:02.181Z,19.70
2022-10-03T14:30:33.003Z,19.50
2022-10-03T14:33:05.117Z,19.20
2022-10-03T14:35:39.035Z,19.10
2022-10-03T14:38:14.597Z,19.10
2022-10-03T14:40:47.542Z,19.30
2022-10-03T14:43:22.334Z,19.30
2022-10-03T14:45:52.982Z,19.50
2022-10-03T14:48:23.155Z,19.50
2022-10-03T14:50:52.613Z,19.40
2022-10-03T14:53:23.926Z,19.20
2022-10-03T14:55:57.833Z,19.20
2022-10-03T14:58:29.389Z,19.30
2022-10-03T15:01:03.292Z,19.20
2022-10-03T15:03:37.995Z,19.20
2022-10-03T15:06:20.253Z,19.10
2022-10-03T15:08:49.790Z,19.00
2022-10-03T15:11:23.928Z,19.10
2022-10-03T15:13:52.492Z,19.30
2022-10-03T15:16:22.427Z,19.40
2022-10-03T15:18:53.137Z,19.60
2022-10-03T15:21:22.149Z,19.80
2022-10-03T15:23:55.522Z,20.10
2022-10-03T15:26:26.167Z,20.10
2022-10-03T15:28:57.063Z,20.30
2022-10-03T15:31:30.128Z,20.20
2022-10-03T15:33:59.140Z,20.20
2022-10-03T15:36:29.080Z,20.10
2022-10-03T15:39:00.657Z,20.40
2022-10-03T15:41:38.873Z,20.80
2022-10-03T15:44:11.483Z,20.70
2022-10-03T15:46:44.486Z,20.60
2022-10-03T15:49:19.820Z,20.70
2022-10-03T15:51:49.076Z,20.60
2022-10-03T15:54:20.972Z,20.70
2022-10-03T15:56:53.113Z,20.80
2022-10-03T15:59:22.098Z,20.70
2022-10-03T16:01:52.758Z,20.50
2022-10-03T16:04:22.107Z,20.50
2022-10-03T16:06:57.807Z,20.30
2022-10-03T16:09:27.913Z,20.20
2022-10-03T16:12:01.994Z,20.30
2022-10-03T16:14:31.655Z,20.20
2022-10-03T16:17:00.929Z,20.30
2022-10-03T16:19:32.371Z,19.90
2022-10-03T16:22:09.016Z,19.70
2022-10-03T16:24:41.983Z,19.30
2022-10-03T16:27:18.265Z,19.00
2022-10-03T16:29:50.165Z,18.70
2022-10-03T16:32:19.555Z,18.40
2022-10-03T16:34:48.120Z,18.10
2022-10-03T16:37:21.233Z,17.80
2022-10-03T16:39:54.433Z,17.50
2022-10-03T16:42:26.037Z,17.30
2022-10-03T16:44:55.524Z,17.20
2022-10-03T16:47:30.265Z,17.00
2022-10-03T16:50:16.617Z,16.80
2022-10-03T16:52:46.756Z,16.60
2022-10-03T16:55:17.012Z,16.40
2022-10-03T16:57:48.144Z,16.20
2022-10-03T17:00:18.732Z,16.00
2022-10-03T17:02:47.429Z,15.80
2022-10-03T17:05:16.105Z,15.60
2022-10-03T17:07:45.370Z,15.40
2022-10-03T17:10:30.057Z,15.20
2022-10-03T17:13:03.557Z,15.10
2022-10-03T17:15:33.917Z,15.00
2022-10-03T17:18:09.096Z,14.90
2022-10-03T17:20:41.017Z,14.70
2022-10-03T17:23:12.667Z,14.60
2022-10-03T17:25:44.743Z,14.40
2022-10-03T17:28:16.742Z,14.30
2022-10-03T17:30:48.022Z,14.20
2022-10-03T17:33:20.172Z,14.00
2022-10-03T17:35:55.001Z,13.80
2022-10-03T17:41:22.369Z,13.40
2022-10-03T17:44:00.593Z,13.30
2022-10-03T17:46:31.580Z,13.10
2022-10-03T17:49:03.677Z,13.00
2022-10-03T17:51:37.662Z,13.00
2022-10-03T17:54:07.650Z,12.90
2022-10-03T17:56:36.013Z,12.80
2022-10-03T17:59:09.076Z,12.70
2022-10-03T18:01:40.495Z,12.70
2022-10-03T18:04:15.733Z,12.50
2022-10-03T18:06:47.822Z,12.40
2022-10-03T18:09:31.610Z,12.30
2022-10-03T18:12:09.720Z,12.10
2022-10-03T18:14:48.209Z,12.00
2022-10-03T18:17:18.258Z,11.80
2022-10-03T18:19:56.246Z,11.70
2022-10-03T18:22:28.420Z,11.60
2022-10-03T18:24:57.675Z,11.40
2022-10-03T18:27:35.671Z,11.30
2022-10-03T18:30:06.625Z,11.30
2022-10-03T18:32:37.638Z,11.20
2022-10-03T18:35:12.936Z,11.10
2022-10-03T18:38:04.715Z,11.00
2022-10-03T18:40:35.781Z,10.90
2022-10-03T18:43:05.965Z,10.80
2022-10-03T18:45:38.295Z,10.80
2022-10-03T18:48:09.275Z,10.70
2022-10-03T18:50:45.451Z,10.60
2022-10-03T18:53:17.124Z,10.70
2022-10-03T18:55:46.452Z,10.60
2022-10-03T18:58:19.020Z,10.60
2022-10-03T19:00:52.053Z,10.50
2022-10-03T19:03:21.945Z,10.50
2022-10-03T19:05:52.746Z,10.50
2022-10-03T19:08:24.282Z,10.40
2022-10-03T19:10:53.965Z,10.20
2022-10-03T19:13:26.555Z,10.20
2022-10-03T19:16:24.694Z,10.20
2022-10-03T19:18:58.281Z,10.00
2022-10-03T19:21:26.857Z,9.90
2022-10-03T19:23:59.684Z,9.90
2022-10-03T19:26:33.545Z,9.90
2022-10-03T19:29:05.580Z,9.80
2022-10-03T19:31:37.002Z,9.80
2022-10-03T19:34:07.829Z,9.80
2022-10-03T19:36:37.909Z,9.80
2022-10-03T19:39:06.364Z,9.80
2022-10-03T19:41:37.596Z,9.80
2022-10-03T19:44:07.799Z,9.70
2022-10-03T19:46:50.912Z,9.60
2022-10-03T19:49:27.935Z,9.70
2022-10-03T19:52:10.956Z,9.70
2022-10-03T19:54:45.076Z,9.70
2022-10-03T19:57:15.726Z,9.70
2022-10-03T19:59:45.668Z,9.60
2022-10-03T20:02:13.873Z,9.60
2022-10-03T20:04:43.226Z,9.40
2022-10-03T20:07:13.141Z,9.40
2022-10-03T20:09:42.425Z,9.40
2022-10-03T20:12:11.297Z,9.30
2022-10-03T20:14:41.921Z,9.30
2022-10-03T20:17:13.066Z,9.30
2022-10-03T20:19:54.286Z,9.20
2022-10-03T20:22:23.036Z,9.10
2022-10-03T20:24:50.879Z,9.10
2022-10-03T20:27:25.607Z,9.10
2022-10-03T20:29:57.642Z,9.10
2022-10-03T20:32:25.790Z,9.00
2022-10-03T20:34:56.198Z,8.90
2022-10-03T20:37:30.450Z,9.00
2022-10-03T20:40:06.040Z,9.00
2022-10-03T20:42:34.284Z,8.90
2022-10-03T20:45:03.299Z,8.80
2022-10-03T20:47:38.270Z,8.70
2022-10-03T20:50:11.685Z,8.70
2022-10-03T20:52:39.765Z,8.60
2022-10-03T20:55:09.260Z,8.60
2022-10-03T20:57:39.096Z,8.60
2022-10-03T21:00:09.976Z,8.60
2022-10-03T21:02:42.355Z,8.50
2022-10-03T21:05:15.903Z,8.50
2022-10-03T21:07:47.342Z,8.60
2022-10-03T21:10:19.157Z,8.60
2022-10-03T21:12:48.798Z,8.60
2022-10-03T21:15:22.426Z,8.60
2022-10-03T21:17:50.890Z,8.60
2022-10-03T21:20:23.623Z,8.50
2022-10-03T21:29:32.677Z,8.30
2022-10-03T21:32:07.409Z,8.20
2022-10-03T21:34:41.408Z,8.20
2022-10-03T21:37:16.904Z,8.30
2022-10-03T21:39:51.246Z,8.20
2022-10-03T21:42:22.883Z,8.10
2022-10-03T21:45:01.059Z,8.10
2022-10-03T21:47:34.253Z,8.10
2022-10-03T21:50:03.113Z,8.10
2022-10-03T21:52:36.248Z,8.10
2022-10-03T21:55:10.230Z,8.10
2022-10-03T21:57:47.024Z,8.10
2022-10-03T22:00:15.689Z,8.10
2022-10-03T22:02:52.507Z,8.10
2022-10-03T22:05:24.761Z,8.10
2022-10-03T22:10:56.275Z,8.10
2022-10-03T22:13:26.398Z,8.10
2022-10-03T22:15:56.927Z,8.10
2022-10-03T22:18:26.308Z,8.10
2022-10-03T22:20:55.405Z,8.00
2022-10-03T22:23:29.276Z,8.00
2022-10-03T22:26:06.376Z,8.00
2022-10-03T22:28:41.928Z,8.00
2022-10-03T22:31:15.107Z,8.00
2022-10-03T22:33:49.378Z,8.00
2022-10-03T22:36:19.576Z,7.90
2022-10-03T22:38:47.972Z,7.90
2022-10-03T22:41:18.372Z,7.80
2022-10-03T22:43:47.399Z,7.80
2022-10-03T22:46:20.873Z,7.80
2022-10-03T22:48:50.503Z,7.80
2022-10-03T22:51:20.621Z,7.70
2022-10-03T22:53:50.328Z,7.70
2022-10-03T22:56:41.492Z,7.70
2022-10-03T22:59:11.489Z,7.70
2022-10-03T23:01:42.042Z,7.70
2022-10-03T23:04:13.397Z,7.60
2022-10-03T23:06:49.173Z,7.60
2022-10-03T23:09:21.992Z,7.50
2022-10-03T23:11:52.304Z,7.50
2022-10-03T23:14:23.572Z,7.40
2022-10-03T23:16:53.515Z,7.40
2022-10-03T23:19:35.608Z,7.30
2022-10-03T23:22:03.624Z,7.20
2022-10-03T23:24:33.674Z,7.10
2022-10-03T23:27:17.166Z,7.00
2022-10-03T23:29:45.014Z,6.90
2022-10-03T23:32:12.881Z,7.00
2022-10-03T23:34:49.017Z,7.00
2022-10-03T23:37:24.647Z,7.00
2022-10-03T23:40:07.344Z,7.00
2022-10-03T23:42:43.321Z,7.00
2022-10-03T23:45:13.783Z,7.00
2022-10-03T23:47:45.308Z,7.00
2022-10-03T23:50:17.312Z,7.00
2022-10-03T23:52:47.351Z,7.00
2022-10-03T23:55:19.679Z,7.00
2022-10-03T23:57:49.041Z,6.90
